Latest Weather Observations for Wynyard

IDT60801

Issued at 5:35 pm EDT Thursday 27 November 2014 (issued every 30 minutes, with the page automatically refreshed every 10 minutes)

About weather observations | Map of weather stations | Latest weather observations for TAS | Other Formats
Station Details ID: 091107 Name: WYNYARD AIRPORT Lat: -41.00 Lon: 145.73 Height: 12.0 m
Data from the previous 72 hours. | See also: Recent months at Wynyard
Date/Time
EDT
Temp
°C
App
Temp
°C
Dew
Point
Rel
Hum
%
Delta-T
°C
Wind Press
QNH
hPa
Press
MSL
hPa
Rain
since 9 am
mm
Dir
 
Spd
km/h
Gust
km/h
Spd
kts
Gust
kts
27/05:30pm 21.3 15.2 3.0 30 8.6 SSW 24 32 13 17 1021.3 1021.3 0.0
27/05:00pm 22.1 16.8 5.1 33 8.4 SSW 22 30 12 16 1021.4 1021.4 0.0
27/04:30pm 21.8 16.4 2.5 28 9.1 SSW 20 32 11 17 1021.5 1021.5 0.0
27/04:00pm 22.1 16.5 3.3 29 9.0 S 22 35 12 19 1021.5 1021.5 0.0
27/03:30pm 22.5 17.1 6.3 35 8.2 S 24 35 13 19 1021.8 1021.8 0.0
27/03:00pm 20.7 18.5 9.3 48 6.0 NE 11 15 6 8 1022.1 1022.1 0.0
27/02:30pm 20.8 16.9 8.8 46 6.3 NE 19 22 10 12 1022.2 1022.2 0.0
27/02:00pm 20.3 18.5 9.5 50 5.7 SW 9 15 5 8 1022.5 1022.5 0.0
27/01:30pm 20.2 16.4 3.9 34 7.8 SSW 13 22 7 12 1022.8 1022.8 0.0
27/01:00pm 19.8 17.1 7.5 45 6.3 SW 11 24 6 13 1022.9 1022.9 0.0
27/12:30pm 19.3 15.3 6.8 44 6.3 SW 17 22 9 12 1023.2 1023.2 0.0
27/12:00pm 18.6 12.7 5.8 43 6.3 SW 26 43 14 23 1023.4 1023.4 0.0
27/11:30am 18.7 14.5 8.4 51 5.3 SSW 20 43 11 23 1023.5 1023.5 0.0
27/11:00am 17.7 13.4 6.9 49 5.4 SSW 19 32 10 17 1023.8 1023.8 0.0
27/10:30am 16.4 11.6 7.3 55 4.5 S 22 32 12 17 1024.1 1024.1 0.0
27/10:00am 15.3 9.2 4.9 50 4.9 SSW 26 39 14 21 1024.3 1024.3 0.0
27/09:30am 14.6 9.8 5.7 55 4.2 SSW 20 32 11 17 1024.6 1024.6 0.0
27/09:00am 13.8 8.5 4.9 55 4.1 SSW 22 35 12 19 1024.6 1024.6 0.0
27/08:30am 12.8 7.6 5.5 61 3.4 SSW 22 43 12 23 1024.2 1024.2 0.0
27/08:00am 11.6 5.9 4.8 63 3.1 SSW 24 35 13 19 1024.1 1024.1 0.0
27/07:30am 11.0 6.7 5.3 68 2.6 SSW 17 24 9 13 1023.9 1023.9 0.0
27/07:00am 9.2 5.7 5.4 77 1.7 SW 13 20 7 11 1024.0 1024.0 0.0
27/06:30am 7.4 4.1 4.7 83 1.2 SW 11 13 6 7 1023.7 1023.7 0.0
27/06:00am 7.1 3.4 4.2 82 1.2 SSW 13 15 7 8 1023.4 1023.4 0.0
27/05:30am 5.6 1.3 3.3 85 1.0 SW 15 17 8 9 1023.3 1023.3 0.0
27/05:00am 6.5 3.0 3.3 80 1.3 SW 11 15 6 8 1023.1 1023.1 0.0
27/04:30am 6.5 3.0 3.7 82 1.2 SW 11 13 6 7 1023.0 1023.0 0.0
27/04:00am 7.2 2.7 4.0 80 1.4 SW 17 20 9 11 1023.0 1023.0 0.0
27/03:30am 7.4 2.9 4.2 80 1.4 SW 17 22 9 12 1022.7 1022.7 0.0
27/03:00am 9.0 5.7 4.4 73 2.0 SW 11 22 6 12 1022.7 1022.7 0.0
27/02:30am 7.2 1.8 4.3 82 1.3 SW 22 26 12 14 1022.3 1022.3 0.0
27/02:00am 7.0 3.7 4.5 84 1.1 WNW 11 13 6 7 1022.5 1022.5 0.0
27/01:30am 8.2 5.7 4.0 75 1.8 W 6 9 3 5 1022.6 1022.6 0.0
27/01:00am 9.4 7.7 4.2 70 2.3 W 2 7 1 4 1022.6 1022.6 0.0
27/12:30am 9.6 5.9 4.2 69 2.4 SSW 13 19 7 10 1022.5 1022.5 0.0
27/12:00am 8.8 5.5 4.8 76 1.8 SW 11 19 6 10 1022.5 1022.5 0.0
 
Date/Time
EDT
Temp
°C
App
Temp
°C
Dew
Point
Rel
Hum
%
Delta-T
°C
Wind Press
QNH
hPa
Press
MSL
hPa
Rain
since 9 am
mm
Dir
 
Spd
km/h
Gust
km/h
Spd
kts
Gust
kts
26/11:30pm 9.4 7.2 5.2 75 1.9 SW 6 9 3 5 1022.4 1022.4 0.0
26/11:00pm 9.5 6.3 4.9 73 2.1 SW 11 13 6 7 1022.5 1022.5 0.0
26/10:30pm 9.2 5.2 5.0 75 1.9 SSW 15 19 8 10 1022.3 1022.3 0.0
26/10:00pm 9.5 6.6 4.5 71 2.2 SSW 9 19 5 10 1022.2 1022.2 0.0
26/09:30pm 11.1 7.1 4.8 65 2.9 SW 15 26 8 14 1021.9 1021.9 0.0
26/09:00pm 11.5 7.4 4.3 61 3.2 SSW 15 32 8 17 1021.5 1021.5 0.0
26/08:30pm 11.8 7.3 4.1 59 3.5 SSW 17 33 9 18 1021.5 1021.5 0.0
26/08:00pm 12.3 7.2 4.0 57 3.7 SSW 20 30 11 16 1021.1 1021.1 0.0
26/07:30pm 13.2 8.2 4.4 55 4.0 SSW 20 35 11 19 1020.5 1020.5 0.0
26/07:00pm 13.7 7.2 4.8 55 4.1 SW 28 43 15 23 1020.1 1020.1 0.0
26/06:32pm 14.7 7.8 4.7 51 4.7 SSW 30 48 16 26 1019.6 1019.6 0.0
26/06:30pm 14.7 7.8 4.7 51 4.7 SSW 30 44 16 24 1019.6 1019.6 0.0
26/06:00pm 15.3 8.6 5.5 52 4.7 SW 30 41 16 22 1018.9 1018.9 0.0
26/05:30pm 16.4 9.3 5.4 48 5.3 SW 32 46 17 25 1018.7 1018.7 0.0
26/05:00pm 16.9 10.1 5.2 46 5.6 SSW 30 44 16 24 1018.5 1018.5 0.0
26/04:30pm 17.1 10.3 5.1 45 5.7 SSW 30 50 16 27 1018.3 1018.3 0.0
26/04:00pm 17.5 10.7 5.1 44 5.9 SSW 30 43 16 23 1018.0 1018.0 0.0
26/03:30pm 17.5 11.0 6.7 49 5.4 SSW 30 39 16 21 1017.9 1017.8 0.0
26/03:00pm 17.4 10.5 6.3 48 5.4 SW 32 50 17 27 1017.8 1017.7 0.0
26/02:49pm 18.4 12.6 7.8 50 5.4 SSW 28 46 15 25 1017.8 1017.7 0.0
26/02:30pm 16.8 11.3 6.0 49 5.3 SSW 24 35 13 19 1017.7 1017.6 0.0
26/02:00pm 16.4 10.9 6.0 50 5.0 SSW 24 41 13 22 1017.8 1017.7 0.0
26/01:48pm 17.3 11.2 6.8 50 5.2 SW 28 46 15 25 1017.8 1017.7 0.0
26/01:30pm 16.4 10.7 6.5 52 4.8 SSW 26 39 14 21 1017.7 1017.6 0.0
26/01:00pm 17.9 11.3 7.9 52 5.1 SW 32 44 17 24 1017.6 1017.5 0.0
26/12:30pm 16.9 10.8 6.4 50 5.2 SSW 28 39 15 21 1017.4 1017.3 0.0
26/12:00pm 17.1 10.6 6.3 49 5.3 SW 30 44 16 24 1017.4 1017.3 0.0
26/11:30am 15.7 9.7 7.0 56 4.3 SSW 28 43 15 23 1017.4 1017.3 0.0
26/11:00am 15.8 10.0 6.3 53 4.6 SW 26 41 14 22 1017.3 1017.2 0.0
26/10:30am 15.6 9.6 6.9 56 4.3 SW 28 44 15 24 1017.1 1017.0 0.0
26/10:00am 14.5 7.8 7.3 62 3.5 SW 32 46 17 25 1017.0 1016.9 0.0
26/09:30am 14.3 7.4 7.1 62 3.5 SW 33 43 18 23 1016.8 1016.8 0.0
26/09:12am 14.6 7.8 6.7 59 3.8 SW 32 50 17 27 1016.5 1016.5 0.0
26/09:00am 13.9 7.1 6.7 62 3.5 SW 32 46 17 25 1016.4 1016.4 0.8
26/08:30am 13.7 7.9 8.1 69 2.8 SW 28 43 15 23 1016.0 1016.0 0.8
26/08:00am 13.0 9.6 9.3 78 1.9 WSW 17 26 9 14 1015.7 1015.7 0.8
26/07:30am 12.6 8.6 9.2 80 1.7 SW 20 37 11 20 1015.2 1015.2 0.8
26/07:00am 12.2 8.5 10.1 87 1.1 WSW 20 28 11 15 1015.2 1015.2 0.8
26/06:30am 11.4 7.8 9.8 90 0.8 SW 19 28 10 15 1014.5 1014.5 0.8
26/06:00am 11.1 6.5 9.7 91 0.7 SW 24 39 13 21 1014.3 1014.3 0.8
26/05:36am 11.3 6.6 10.5 95 0.4 SW 26 35 14 19 1014.0 1014.0 0.8
26/05:30am 11.4 7.1 10.9 97 0.3 W 24 30 13 16 1014.0 1014.0 0.8
26/05:23am 11.6 7.0 11.1 97 0.3 SW 26 35 14 19 1013.9 1013.9 0.8
26/05:00am 11.5 8.1 11.2 98 0.2 WSW 20 33 11 18 1013.7 1013.7 0.8
26/04:51am 11.5 8.1 11.3 99 0.1 W 20 28 11 15 1013.6 1013.6 0.8
26/04:38am 11.6 7.5 11.4 99 0.1 WSW 24 35 13 19 1013.5 1013.5 0.8
26/04:30am 11.6 7.9 11.4 99 0.1 WSW 22 32 12 17 1013.5 1013.5 0.6
26/04:29am 11.6 7.9 11.4 99 0.1 WSW 22 28 12 15 1013.4 1013.4 0.6
26/04:02am 11.9 6.3 11.4 97 0.3 W 32 43 17 23 1013.5 1013.5 0.2
26/04:00am 12.0 6.7 11.2 95 0.4 W 30 43 16 23 1013.5 1013.5 0.0
26/03:30am 11.4 7.6 11.2 99 0.1 W 22 26 12 14 1013.5 1013.5 0.0
26/03:00am 11.4 7.2 11.2 99 0.1 W 24 33 13 18 1013.9 1013.9 0.0
26/02:30am 11.1 7.8 10.9 99 0.1 W 19 24 10 13 1014.2 1014.2 0.0
26/02:19am 11.1 7.6 10.9 99 0.1 W 20 28 11 15 1014.4 1014.4 0.0
26/02:00am 11.2 6.6 10.9 98 0.2 W 26 35 14 19 1014.6 1014.6 0.0
26/01:56am 11.4 6.7 10.6 95 0.4 W 26 35 14 19 1014.6 1014.6 0.0
26/01:30am 11.4 7.6 9.8 90 0.8 W 20 26 11 14 1014.7 1014.7 0.0
26/01:00am 11.3 7.1 9.7 90 0.8 W 22 32 12 17 1015.1 1015.1 0.0
26/12:30am 11.3 6.8 8.5 83 1.4 W 22 32 12 17 1015.3 1015.3 0.0
26/12:00am 11.4 6.9 8.4 82 1.5 W 22 30 12 16 1015.5 1015.5 0.0
 
Date/Time
EDT
Temp
°C
App
Temp
°C
Dew
Point
Rel
Hum
%
Delta-T
°C
Wind Press
QNH
hPa
Press
MSL
hPa
Rain
since 9 am
mm
Dir
 
Spd
km/h
Gust
km/h
Spd
kts
Gust
kts
25/11:30pm 11.5 7.3 8.2 80 1.6 W 20 32 11 17 1015.7 1015.7 0.0
25/11:00pm 11.4 6.3 7.7 78 1.8 WSW 24 33 13 18 1015.9 1015.9 0.0
25/10:30pm 11.3 7.0 7.2 76 2.0 W 19 26 10 14 1015.9 1015.9 0.0
25/10:00pm 11.1 6.8 6.8 75 2.0 WSW 19 26 10 14 1016.2 1016.2 0.0
25/09:30pm 11.5 7.4 6.4 71 2.4 W 17 24 9 13 1016.1 1016.1 0.0
25/09:00pm 11.2 7.1 6.1 71 2.4 W 17 20 9 11 1015.8 1015.8 0.0
25/08:30pm 11.8 6.8 6.5 70 2.5 SW 22 30 12 16 1015.7 1015.7 0.0
25/08:00pm 12.6 7.3 6.6 67 2.9 SW 24 37 13 20 1015.5 1015.5 0.0
25/07:30pm 12.8 7.1 6.8 67 2.9 SW 26 39 14 21 1015.1 1015.1 0.0
25/07:00pm 13.8 7.9 7.3 65 3.2 SW 28 39 15 21 1014.7 1014.7 0.0
25/06:30pm 13.6 6.9 7.4 66 3.0 SW 32 41 17 22 1014.3 1014.3 0.0
25/06:19pm 13.8 7.9 7.6 66 3.0 SW 28 56 15 30 1014.2 1014.2 0.0
25/06:00pm 13.5 7.0 8.1 70 2.7 SW 32 44 17 24 1014.2 1014.2 0.0
25/05:53pm 14.0 7.5 8.2 68 2.9 SW 32 43 17 23 1014.2 1014.2 0.0
25/05:38pm 12.4 4.7 10.0 85 1.2 SW 41 59 22 32 1014.3 1014.3 0.0
25/05:31pm 13.3 6.1 7.7 69 2.8 SW 35 59 19 32 1013.9 1013.9 0.0
25/05:30pm 13.6 6.8 7.6 67 2.9 SW 33 50 18 27 1013.9 1013.9 0.0
25/05:01pm 14.8 7.4 6.9 59 3.9 SW 35 57 19 31 1013.6 1013.6 0.0
25/05:00pm 14.9 8.0 7.2 60 3.8 SW 33 48 18 26 1013.6 1013.6 0.0
25/04:42pm 15.5 9.0 9.0 65 3.3 SW 33 52 18 28 1013.5 1013.5 0.0
25/04:30pm 15.0 8.3 8.3 64 3.4 SW 33 50 18 27 1013.4 1013.4 0.0
25/04:00pm 15.0 8.8 8.0 63 3.5 SW 30 46 16 25 1013.4 1013.4 0.0
25/03:53pm 16.6 9.5 8.1 57 4.3 SW 35 54 19 29 1013.2 1013.2 0.0
25/03:30pm 16.6 9.6 8.6 59 4.1 SW 35 50 19 27 1013.1 1013.1 0.0
25/03:07pm 14.7 7.4 8.9 68 2.9 SW 37 57 20 31 1013.1 1013.1 0.0
25/03:00pm 15.2 8.9 9.1 67 3.1 SW 32 46 17 25 1012.9 1012.9 0.0
25/02:38pm 18.2 11.1 11.0 63 3.9 WSW 39 57 21 31 1012.6 1012.6 0.0
25/02:30pm 17.1 8.7 8.8 58 4.3 WSW 43 57 23 31 1012.6 1012.6 0.0
25/02:18pm 16.6 9.8 9.3 62 3.8 WSW 35 57 19 31 1012.7 1012.7 0.0
25/02:11pm 15.4 9.0 10.8 74 2.4 SW 35 48 19 26 1012.8 1012.8 0.0
25/02:06pm 15.9 8.7 9.1 64 3.5 W 37 56 20 30 1012.5 1012.5 0.0
25/02:00pm 16.9 9.1 8.3 57 4.4 W 39 50 21 27 1012.3 1012.3 0.0
25/01:58pm 17.1 10.4 9.5 61 4.0 WNW 35 44 19 24 1012.3 1012.3 0.0
25/01:43pm 17.0 9.4 9.2 60 4.0 WSW 39 57 21 31 1012.4 1012.4 0.0
25/01:30pm 15.9 9.1 7.9 59 4.0 WSW 33 46 18 25 1012.3 1012.3 0.0
25/01:02pm 17.1 9.6 9.3 60 4.1 WSW 39 57 21 31 1012.2 1012.2 0.0
25/01:00pm 16.9 8.7 8.3 57 4.4 WSW 41 57 22 31 1012.2 1012.2 0.0
25/12:58pm 16.5 8.6 7.7 56 4.4 WSW 39 57 21 31 1012.2 1012.2 0.0
25/12:50pm 17.9 11.2 9.5 58 4.4 WSW 35 50 19 27 1012.1 1012.1 0.0
25/12:45pm 17.9 10.7 9.3 57 4.5 W 37 44 20 24 1012.2 1012.2 0.0
25/12:34pm 16.1 8.6 7.8 58 4.2 SW 37 56 20 30 1012.2 1012.2 0.0
25/12:30pm 16.5 9.7 9.2 62 3.8 SW 35 50 19 27 1012.2 1012.2 0.0
25/12:01pm 15.3 8.6 7.3 59 4.0 SW 32 56 17 30 1012.2 1012.2 0.0
25/12:00pm 15.5 8.8 7.5 59 4.0 SW 32 41 17 22 1012.1 1012.1 0.0
25/11:30am 16.2 8.5 7.2 55 4.5 SW 37 56 20 30 1011.7 1011.7 0.0
25/11:07am 16.8 9.8 8.5 58 4.2 SW 35 54 19 29 1011.6 1011.6 0.0
25/11:00am 16.1 8.6 8.1 59 4.0 SW 37 52 20 28 1011.5 1011.5 0.0
25/10:30am 16.2 9.8 9.2 63 3.6 WSW 33 54 18 29 1011.0 1011.0 0.0
25/10:05am 14.5 7.3 7.8 64 3.3 SW 35 54 19 29 1010.7 1010.7 0.0
25/10:00am 14.7 7.8 7.3 61 3.6 SW 33 50 18 27 1010.7 1010.7 0.0
25/09:43am 15.1 9.3 8.1 63 3.5 SW 28 46 15 25 1010.7 1010.7 0.0
25/09:30am 15.2 10.2 9.6 69 2.9 SW 26 43 14 23 1010.5 1010.5 0.0
25/09:04am 14.4 8.8 8.8 69 2.8 SW 28 46 15 25 1010.4 1010.4 0.0
25/09:00am 14.7 9.5 10.1 74 2.4 SW 28 39 15 21 1010.4 1010.4 1.6
25/08:33am 12.6 6.0 7.9 73 2.3 SW 32 50 17 27 1010.1 1010.1 1.6
25/08:30am 13.2 6.7 8.3 72 2.4 SW 32 48 17 26 1010.1 1010.1 1.6
25/08:18am 13.2 5.8 8.3 72 2.4 SW 37 57 20 31 1009.9 1009.9 1.6
25/08:00am 13.7 6.6 9.7 77 2.1 WSW 37 52 20 28 1009.6 1009.6 1.6
25/07:30am 12.4 5.7 8.1 75 2.1 WSW 33 52 18 28 1009.1 1009.1 1.6
25/07:23am 12.4 6.6 8.1 75 2.1 WSW 28 46 15 25 1009.0 1009.0 1.6
25/07:00am 11.7 6.8 8.6 81 1.5 WSW 24 32 13 17 1008.8 1008.8 1.6
25/06:30am 10.9 6.1 8.7 86 1.1 SW 24 30 13 16 1008.5 1008.5 1.6
25/06:00am 10.3 5.1 8.7 90 0.8 SW 26 35 14 19 1008.0 1008.0 1.6
25/05:30am 10.3 5.4 8.6 89 0.8 SW 24 30 13 16 1007.7 1007.7 1.6
25/05:00am 10.5 5.0 9.1 91 0.7 SW 28 35 15 19 1007.2 1007.2 1.6
25/04:30am 10.3 5.6 9.2 93 0.5 WSW 24 32 13 17 1007.0 1007.0 1.6
25/04:00am 9.9 5.5 9.0 94 0.4 WSW 22 32 12 17 1007.0 1007.0 1.6
25/03:30am 9.5 5.4 8.6 94 0.4 SW 20 32 11 17 1006.8 1006.8 1.6
25/03:00am 9.5 4.6 8.3 92 0.6 WSW 24 32 13 17 1006.9 1006.9 1.6
25/02:30am 9.8 4.9 8.6 92 0.6 W 24 33 13 18 1006.9 1006.9 1.6
25/02:00am 9.0 5.0 8.2 95 0.4 WSW 19 22 10 12 1007.2 1007.2 1.6
25/01:30am 8.1 5.2 8.0 99 0.0 SW 13 19 7 10 1007.3 1007.3 1.6
25/01:00am 8.2 7.4 8.1 99 0.0 SW 2 6 1 3 1007.6 1007.6 1.6
25/12:30am 8.3 6.1 7.9 97 0.2 SW 9 13 5 7 1007.7 1007.7 1.4
25/12:00am 9.1 5.7 7.7 91 0.7 SW 15 19 8 10 1007.6 1007.6 1.4
 
Date/Time
EDT
Temp
°C
App
Temp
°C
Dew
Point
Rel
Hum
%
Delta-T
°C
Wind Press
QNH
hPa
Press
MSL
hPa
Rain
since 9 am
mm
Dir
 
Spd
km/h
Gust
km/h
Spd
kts
Gust
kts
24/11:30pm 8.2 5.5 7.4 95 0.4 SW 11 13 6 7 1007.8 1007.8 1.4
24/11:00pm 8.9 5.8 7.4 90 0.7 SW 13 15 7 8 1007.7 1007.7 1.4
24/10:30pm 9.7 6.3 7.6 87 1.0 SW 15 20 8 11 1007.8 1007.8 1.4
24/10:00pm 10.7 6.5 8.1 84 1.3 SW 20 28 11 15 1007.7 1007.7 1.4
24/09:30pm 11.0 6.0 8.0 82 1.5 SW 24 33 13 18 1007.0 1007.0 1.4
24/09:00pm 11.1 6.6 8.7 85 1.2 W 22 33 12 18 1006.5 1006.5 1.4
24/08:30pm 11.2 7.3 8.6 84 1.3 WSW 19 22 10 12 1006.2 1006.2 1.4
24/08:00pm 12.1 8.1 8.4 78 1.8 SW 19 26 10 14 1005.9 1005.9 1.4
24/07:30pm 13.2 8.6 8.3 72 2.4 SW 22 30 12 16 1005.4 1005.4 1.4
24/07:00pm 13.6 9.7 9.3 75 2.2 SW 20 33 11 18 1004.7 1004.7 1.4
24/06:30pm 13.7 10.6 12.1 90 0.9 WSW 20 28 11 15 1004.3 1004.3 1.4
24/06:00pm 13.7 10.9 12.6 93 0.6 SW 19 26 10 14 1004.1 1004.1 1.4
24/05:41pm 13.7 13.1 13.5 99 0.1 SW 9 19 5 10 1004.2 1004.2 1.4

Other Formats:

Comma delimited format used in spreadsheet applications
http://www.bom.gov.au/fwo/IDT60801/IDT60801.95957.axf

JavaScript Object Notation format (JSON) in row-major order
http://www.bom.gov.au/fwo/IDT60801/IDT60801.95957.json